Time;durP1;ratioP1;P1;durP2;ratioP2;P2;SDS_P1;SDS_P2;PMS_P1;PMS_P2;Temp;Humidity;BMP_temperature;BMP_pressure;BME280_temperature;BME280_humidity;BME280_pressure;Samples;Min_cycle;Max_cycle;Signal;HPM_P1;HPM_P2
2023/02/25 00:01:46;;;;;;;6.35;3.88;;;11.40;66.70;;;6.98;100.00;94332.63;4987480;28;20026;-49
2023/02/25 00:04:17;;;;;;;7.63;3.92;;;11.40;66.90;;;6.95;100.00;94337.38;4971096;28;20046;-50
2023/02/25 00:06:45;;;;;;;9.27;4.20;;;11.40;66.90;;;6.95;100.00;94341.88;4961392;28;20042;-50
2023/02/25 00:09:11;;;;;;;9.27;4.07;;;11.30;66.80;;;6.94;100.00;94341.09;4970390;28;20037;-50
2023/02/25 00:11:43;;;;;;;10.68;4.22;;;11.30;66.90;;;6.92;100.00;94343.22;4985092;28;20029;-51
2023/02/25 00:14:09;;;;;;;9.48;4.40;;;11.30;67.10;;;6.90;100.00;94341.94;4970694;28;20042;-50
2023/02/25 00:16:35;;;;;;;9.35;4.25;;;11.30;67.00;;;6.89;100.00;94340.31;4970789;28;20083;-50
2023/02/25 00:19:02;;;;;;;10.60;3.83;;;11.20;66.90;;;6.89;100.00;94338.50;4970732;28;20129;-47
2023/02/25 00:21:32;;;;;;;9.23;4.07;;;11.20;67.00;;;6.88;100.00;94362.56;4986362;28;20386;-50
2023/02/25 00:24:00;;;;;;;7.85;2.25;;;11.20;67.20;;;6.66;100.00;94363.69;4972933;28;20022;-49
2023/02/25 00:26:27;;;;;;;6.90;2.40;;;11.20;66.90;;;6.52;100.00;94360.03;4958903;28;20029;-50
2023/02/25 00:28:53;;;;;;;4.10;1.58;;;11.10;66.60;;;6.24;100.00;94354.28;4987455;28;20089;-51
2023/02/25 00:31:23;;;;;;;2.63;1.40;;;11.00;66.30;;;6.02;100.00;94362.50;4988445;28;20065;-49
2023/02/25 00:33:51;;;;;;;5.80;1.60;;;10.90;66.10;;;6.07;100.00;94368.81;4971825;28;20033;-49
2023/02/25 00:36:25;;;;;;;5.38;2.00;;;10.80;66.00;;;6.01;100.00;94371.47;4973760;28;20026;-49
2023/02/25 00:38:55;;;;;;;4.28;1.45;;;10.80;66.10;;;5.91;100.00;94366.16;4986990;28;20038;-46
2023/02/25 00:41:29;;;;;;;1.83;1.38;;;10.70;66.00;;;5.84;100.00;94368.28;4957945;28;20031;-49
2023/02/25 00:44:00;;;;;;;3.33;1.67;;;10.60;66.00;;;5.72;100.00;94362.44;4971864;28;20089;-52
2023/02/25 00:46:28;;;;;;;3.42;1.40;;;10.50;65.90;;;5.70;100.00;94368.00;4987788;28;20014;-50
2023/02/25 00:49:01;;;;;;;6.10;2.10;;;10.40;65.90;;;5.49;100.00;94361.13;4974575;28;20026;-52
2023/02/25 00:51:31;;;;;;;;;;;10.30;65.90;;;5.50;100.00;94358.19;4988709;28;20473;-51
2023/02/25 00:54:00;;;;;;;2.55;1.65;;;10.20;65.60;;;5.52;100.00;94352.66;4974673;28;19996;-51
2023/02/25 00:56:26;;;;;;;3.13;1.77;;;10.10;66.60;;;5.49;100.00;94348.69;4989876;28;20030;-53
2023/02/25 00:58:58;;;;;;;3.15;1.80;;;10.10;65.90;;;5.49;100.00;94350.53;4971116;28;20045;-54
2023/02/25 01:01:32;;;;;;;6.60;2.00;;;10.00;65.90;;;5.43;100.00;94356.88;4973543;28;20044;-53
2023/02/25 01:04:00;;;;;;;3.40;2.22;;;10.00;66.10;;;5.37;100.00;94353.44;4971192;28;20492;-52
2023/02/25 01:06:29;;;;;;;3.80;2.05;;;10.00;66.10;;;5.34;100.00;94359.22;4972306;28;20412;-52
2023/02/25 01:08:59;;;;;;;4.25;2.00;;;10.00;66.20;;;5.34;100.00;94369.78;4971441;28;20116;-52
2023/02/25 01:11:35;;;;;;;6.22;2.70;;;9.90;66.20;;;5.34;100.00;94367.94;4985961;28;20022;-54
2023/02/25 01:14:22;;;;;;;4.43;2.28;;;9.90;66.20;;;5.32;100.00;94377.16;4972377;28;20432;-50
2023/02/25 01:16:51;;;;;;;7.00;2.72;;;9.90;66.30;;;5.34;100.00;94375.06;4962861;28;20394;-49
2023/02/25 01:19:24;;;;;;;6.05;2.78;;;9.90;66.30;;;5.33;100.00;94374.28;4971024;28;20448;-54
2023/02/25 01:21:57;;;;;;;5.32;2.47;;;9.90;66.30;;;5.31;100.00;94371.09;4971597;28;20100;-51
2023/02/25 01:24:29;;;;;;;6.50;3.03;;;9.90;66.30;;;5.28;100.00;94374.25;4972597;28;20037;-48
2023/02/25 01:27:02;;;;;;;5.25;2.63;;;9.90;66.30;;;5.30;100.00;94376.66;4988276;28;20029;-53
2023/02/25 01:29:38;;;;;;;5.30;2.70;;;9.90;66.40;;;5.22;100.00;94374.50;4987045;28;20022;-52
2023/02/25 01:32:14;;;;;;;4.28;2.53;;;9.80;66.20;;;5.25;100.00;94382.69;4972661;28;20399;-49
2023/02/25 01:34:46;;;;;;;8.80;3.17;;;9.90;66.30;;;5.25;100.00;94389.84;4973780;28;20381;-55
2023/02/25 01:37:12;;;;;;;5.15;3.03;;;9.90;66.40;;;5.22;100.00;94388.50;4972718;28;20125;-51
2023/02/25 01:39:40;;;;;;;9.07;3.80;;;9.80;66.30;;;5.20;100.00;94390.63;4988084;28;20520;-55
2023/02/25 01:42:16;;;;;;;7.32;3.10;;;9.80;66.30;;;5.18;100.00;94387.44;4984789;28;20049;-53
2023/02/25 01:45:22;;;;;;;6.68;3.05;;;9.80;66.30;;;5.13;100.00;94382.13;4974104;28;20065;-52
2023/02/25 01:48:17;;;;;;;6.75;3.33;;;9.80;66.20;;;5.09;100.00;94379.22;4983217;28;20026;-51
2023/02/25 01:51:13;;;;;;;6.25;2.92;;;9.70;66.20;;;5.06;100.00;94376.31;4973614;28;20142;-51
2023/02/25 01:53:47;;;;;;;10.82;4.45;;;9.70;66.30;;;5.03;100.00;94374.97;4958145;28;20034;-54
2023/02/25 01:56:22;;;;;;;7.05;3.22;;;9.70;66.40;;;5.03;100.00;94379.47;4976487;28;20018;-52
2023/02/25 01:58:53;;;;;;;7.72;3.28;;;9.70;67.10;;;5.03;100.00;94384.75;4989908;28;20040;-52
2023/02/25 02:01:27;;;;;;;7.60;3.90;;;9.70;66.30;;;4.99;100.00;94389.75;4975917;28;20022;-49
2023/02/25 02:03:55;;;;;;;6.25;3.55;;;9.70;66.30;;;5.02;100.00;94385.81;4974822;28;20030;-49
2023/02/25 02:06:44;;;;;;;7.88;3.65;;;9.60;66.30;;;4.98;100.00;94388.19;4959190;28;20026;-52
2023/02/25 02:09:27;;;;;;;9.18;3.90;;;9.60;66.40;;;4.91;100.00;94376.25;4983794;28;20026;-50
2023/02/25 02:12:02;;;;;;;8.10;3.70;;;9.60;66.40;;;4.90;100.00;94366.75;4978426;28;20470;-53
2023/02/25 02:14:40;;;;;;;8.93;3.53;;;9.60;66.40;;;4.83;100.00;94364.34;4960635;28;20100;-51
2023/02/25 02:17:55;;;;;;;6.80;2.92;;;9.50;66.40;;;4.83;100.00;94374.91;4973831;28;20460;-53
2023/02/25 02:20:50;;;;;;;8.25;3.45;;;9.50;66.40;;;4.80;100.00;94367.50;4968219;28;20030;-51
2023/02/25 02:24:38;;;;;;;7.65;3.30;;;9.50;66.50;;;4.67;100.00;94387.25;4975886;28;20049;-54
2023/02/25 02:27:47;;;;;;;6.75;3.13;;;9.40;66.30;;;4.69;100.00;94395.66;4965947;28;20381;-52
2023/02/25 02:31:14;;;;;;;10.20;3.28;;;9.40;66.40;;;4.55;100.00;94394.56;4971320;28;20029;-54
2023/02/25 02:34:18;;;;;;;7.05;3.30;;;9.40;66.50;;;4.60;100.00;94381.38;4964608;28;20045;-52
2023/02/25 02:37:49;;;;;;;7.55;3.38;;;9.30;66.40;;;4.64;100.00;94374.56;4991989;28;20030;-49
2023/02/25 02:40:48;;;;;;;7.70;3.53;;;9.30;66.40;;;4.62;100.00;94380.06;4991755;28;20032;-51
2023/02/25 02:43:39;;;;;;;6.43;3.50;;;9.20;66.50;;;4.59;100.00;94395.63;4978184;28;20022;-50
2023/02/25 02:46:52;;;;;;;6.70;3.00;;;9.20;66.50;;;4.55;100.00;94410.38;4991263;28;20081;-52
2023/02/25 02:49:31;;;;;;;10.73;3.58;;;9.30;66.60;;;4.48;100.00;94415.88;4972413;28;20100;-51
2023/02/25 02:52:24;;;;;;;7.65;3.30;;;9.20;66.40;;;4.50;100.00;94411.13;4991511;28;20026;-55
2023/02/25 02:55:33;;;;;;;6.68;2.65;;;9.20;66.40;;;4.45;100.00;94424.31;4992155;28;20029;-49
2023/02/25 02:58:21;;;;;;;6.43;3.05;;;9.20;66.30;;;4.39;100.00;94430.59;4977375;28;20037;-52
2023/02/25 03:01:10;;;;;;;5.82;2.97;;;9.10;66.30;;;4.39;100.00;94425.31;4976952;28;20026;-54
2023/02/25 03:04:00;;;;;;;5.82;2.97;;;9.10;66.30;;;4.37;100.00;94435.31;4975835;28;20034;-55
2023/02/25 03:06:37;;;;;;;9.90;3.33;;;9.10;66.40;;;4.34;100.00;94427.91;4976632;28;20022;-54
2023/02/25 03:09:20;;;;;;;9.38;3.60;;;9.10;66.40;;;4.37;100.00;94440.59;4975316;28;20113;-47
2023/02/25 03:11:46;;;;;;;7.82;3.25;;;9.00;66.40;;;4.25;100.00;94447.88;4960179;28;20022;-49
2023/02/25 03:14:13;;;;;;;6.97;2.88;;;9.00;66.30;;;4.29;100.00;94436.56;4995431;23;20136;-52
2023/02/25 03:16:59;;;;;;;6.57;3.47;;;9.00;66.30;;;4.31;100.00;94434.47;4976520;28;20036;-52
2023/02/25 03:19:52;;;;;;;7.80;3.60;;;9.00;66.50;;;4.33;100.00;94440.31;4986499;28;20072;-49
2023/02/25 03:22:32;;;;;;;10.57;3.67;;;9.00;66.60;;;4.22;100.00;94449.16;4989243;28;20033;-55
2023/02/25 03:25:37;;;;;;;8.77;3.33;;;8.90;66.60;;;4.27;100.00;94451.84;4990337;28;20116;-50
2023/02/25 03:28:29;;;;;;;8.18;3.40;;;9.00;66.60;;;4.22;100.00;94451.81;4986616;28;20014;-50
2023/02/25 03:31:22;;;;;;;10.07;3.35;;;8.90;66.60;;;4.25;100.00;94447.88;4999148;28;20034;-49
2023/02/25 03:34:03;;;;;;;7.05;3.20;;;8.90;66.60;;;4.26;100.00;94457.38;4989931;28;20091;-54
2023/02/25 03:37:40;;;;;;;8.55;2.80;;;8.90;66.70;;;4.22;100.00;94451.00;4980559;28;20034;-49
2023/02/25 03:40:14;;;;;;;5.97;3.10;;;8.90;66.60;;;4.23;100.00;94452.59;4936807;28;20146;-51
2023/02/25 03:42:58;;;;;;;6.95;3.30;;;8.90;66.60;;;4.21;100.00;94452.84;4968040;28;20513;-51
2023/02/25 03:45:25;;;;;;;8.27;3.17;;;8.90;66.70;;;4.21;100.00;94458.13;5005382;28;20163;-49
2023/02/25 03:47:58;;;;;;;7.28;3.60;;;8.90;66.60;;;4.22;100.00;94456.28;4979139;28;20036;-49
2023/02/25 03:50:36;;;;;;;9.15;4.18;;;8.90;66.70;;;4.20;100.00;94472.38;4990479;28;20075;-50
2023/02/25 03:53:03;;;;;;;9.98;4.25;;;8.90;66.60;;;4.18;100.00;94471.81;4989931;28;20095;-50
2023/02/25 03:55:29;;;;;;;9.93;4.18;;;8.90;66.60;;;4.19;100.00;94470.75;5006141;28;20378;-51
2023/02/25 03:57:58;;;;;;;10.65;4.85;;;8.90;66.60;;;4.15;100.00;94473.09;5004760;28;20040;-50
2023/02/25 04:00:33;;;;;;;13.82;5.18;;;8.90;66.60;;;4.07;100.00;94478.03;4984273;28;20045;-54
2023/02/25 04:03:00;;;;;;;11.45;5.53;;;8.90;66.60;;;4.06;100.00;94469.34;5001973;28;20053;-51
2023/02/25 04:05:27;;;;;;;11.85;5.43;;;8.80;66.40;;;4.05;100.00;94474.88;4979368;28;20403;-51
2023/02/25 04:08:01;;;;;;;13.50;5.95;;;8.80;66.40;;;4.05;100.00;94482.78;4990313;28;20052;-50
2023/02/25 04:10:30;;;;;;;14.15;5.60;;;8.80;66.40;;;4.03;100.00;94484.84;4987537;28;20060;-52
2023/02/25 04:12:56;;;;;;;10.70;5.38;;;8.80;66.40;;;3.99;100.00;94476.66;4994886;28;20026;-51
2023/02/25 04:15:22;;;;;;;12.52;6.03;;;8.80;66.40;;;3.93;100.00;94480.28;4996168;28;20053;-52
2023/02/25 04:17:50;;;;;;;15.55;6.07;;;8.80;66.40;;;3.89;100.00;94487.91;4988675;28;20776;-48
2023/02/25 04:20:16;;;;;;;11.65;5.75;;;8.70;66.30;;;3.85;100.00;94481.50;4991202;28;20434;-49
2023/02/25 04:22:43;;;;;;;11.90;5.70;;;8.70;66.30;;;3.85;100.00;94486.78;5007379;28;20041;-48
2023/02/25 04:25:11;;;;;;;12.43;6.15;;;8.70;66.30;;;3.81;100.00;94477.81;4993463;28;20029;-48
2023/02/25 04:27:37;;;;;;;13.15;6.28;;;8.70;66.30;;;3.85;100.00;94486.00;4991304;28;20026;-47
2023/02/25 04:30:04;;;;;;;14.60;7.05;;;8.60;66.30;;;3.85;100.00;94492.06;4979743;28;20741;-48
2023/02/25 04:32:30;;;;;;;11.15;5.60;;;8.60;66.30;;;3.85;100.00;94481.50;4979544;28;20029;-49
2023/02/25 04:35:02;;;;;;;13.82;6.72;;;8.60;66.30;;;3.75;100.00;94486.69;5011141;28;20503;-49
2023/02/25 04:37:29;;;;;;;14.48;5.80;;;8.60;66.30;;;3.76;100.00;94488.31;4988557;28;20030;-48
2023/02/25 04:39:56;;;;;;;14.02;6.57;;;8.60;66.30;;;3.77;100.00;94483.81;4988886;28;20711;-47
2023/02/25 04:42:21;;;;;;;14.00;5.95;;;8.50;66.30;;;3.69;100.00;94487.69;4988422;28;20052;-48
2023/02/25 04:44:50;;;;;;;15.77;7.28;;;8.50;66.30;;;3.73;100.00;94491.44;5004562;28;20030;-47
2023/02/25 04:47:17;;;;;;;16.00;7.47;;;8.50;66.30;;;3.71;100.00;94491.66;4988510;28;20026;-50
2023/02/25 04:49:43;;;;;;;16.88;6.80;;;8.50;66.30;;;3.71;100.00;94490.88;4989250;28;20116;-50
2023/02/25 04:52:14;;;;;;;11.75;6.50;;;8.50;66.30;;;3.71;100.00;94490.88;4998353;28;20037;-50
2023/02/25 04:54:40;;;;;;;14.88;6.85;;;8.50;66.30;;;3.69;100.00;94485.84;4992485;28;20049;-50
2023/02/25 04:57:13;;;;;;;19.38;7.40;;;8.50;66.30;;;3.68;100.00;94479.00;4988266;28;20464;-51
2023/02/25 04:59:39;;;;;;;20.55;7.43;;;8.50;66.30;;;3.66;100.00;94483.69;5003692;28;20053;-49
2023/02/25 05:02:07;;;;;;;21.65;7.55;;;8.40;66.20;;;3.64;100.00;94482.38;4971260;28;20025;-51
2023/02/25 05:04:48;;;;;;;14.60;6.82;;;8.40;66.40;;;3.65;100.00;94478.69;4997673;28;20388;-48
2023/02/25 05:07:14;;;;;;;17.77;7.40;;;8.40;66.30;;;3.63;100.00;94481.56;4982556;28;20056;-50
2023/02/25 05:09:40;;;;;;;18.85;7.55;;;8.40;66.30;;;3.64;100.00;94492.91;5002970;28;20037;-51
2023/02/25 05:12:09;;;;;;;12.00;6.57;;;8.40;66.30;;;3.65;100.00;94497.13;4989917;28;20030;-55
2023/02/25 05:14:45;;;;;;;18.58;7.05;;;8.40;66.40;;;3.62;100.00;94501.03;4975572;28;20473;-52
2023/02/25 05:17:14;;;;;;;15.13;6.97;;;8.50;66.50;;;3.60;100.00;94491.78;4988523;28;20052;-48
2023/02/25 05:19:41;;;;;;;18.60;6.80;;;8.40;66.40;;;3.58;100.00;94478.91;4977606;28;20034;-50
2023/02/25 05:22:09;;;;;;;18.35;7.53;;;8.50;66.40;;;3.63;100.00;94493.94;4990115;28;20018;-49
2023/02/25 05:24:35;;;;;;;15.77;7.45;;;8.50;66.50;;;3.60;100.00;94499.69;4970618;28;20054;-51
2023/02/25 05:27:10;;;;;;;19.33;8.02;;;8.50;66.50;;;3.59;100.00;94493.63;4997371;28;20030;-54
2023/02/25 05:29:39;;;;;;;15.18;7.20;;;8.50;66.50;;;3.61;100.00;94501.31;5000798;28;20025;-53
2023/02/25 05:32:05;;;;;;;22.50;7.70;;;8.50;66.50;;;3.55;100.00;94502.28;5007065;28;20021;-54
2023/02/25 05:34:31;;;;;;;17.23;8.25;;;8.40;66.40;;;3.55;100.00;94500.44;4999613;28;20511;-50
2023/02/25 05:37:00;;;;;;;19.67;8.00;;;8.50;66.50;;;3.57;100.00;94500.19;4997601;28;20480;-52
2023/02/25 05:39:25;;;;;;;22.65;8.80;;;8.50;66.50;;;3.54;100.00;94498.88;4993395;28;20053;-51
2023/02/25 05:41:51;;;;;;;18.10;7.53;;;8.50;66.40;;;3.50;100.00;94494.31;4993348;28;20056;-50
2023/02/25 05:44:18;;;;;;;16.83;7.78;;;8.40;66.40;;;3.50;100.00;94503.03;4976603;28;20030;-49
2023/02/25 05:46:46;;;;;;;14.10;7.07;;;8.40;66.30;;;3.53;100.00;94501.72;4995243;28;20480;-50
2023/02/25 05:49:12;;;;;;;20.20;8.48;;;8.40;66.30;;;3.54;100.00;94500.69;4992717;28;20079;-50
2023/02/25 05:51:38;;;;;;;15.98;7.85;;;8.40;66.20;;;3.54;100.00;94496.25;4996879;28;20116;-53
2023/02/25 05:54:04;;;;;;;17.80;8.45;;;8.40;66.30;;;3.54;100.00;94490.97;4996685;28;20104;-51
2023/02/25 05:56:30;;;;;;;17.20;7.53;;;8.40;66.20;;;3.50;100.00;94489.84;4987188;28;20045;-52
2023/02/25 05:59:02;;;;;;;18.80;9.10;;;8.40;66.20;;;3.50;100.00;94492.47;5010068;28;20033;-50
2023/02/25 06:01:34;;;;;;;15.60;7.75;;;8.40;66.20;;;3.51;100.00;94490.63;5003190;28;20029;-51
2023/02/25 06:04:00;;;;;;;17.33;7.90;;;8.40;66.20;;;3.50;100.00;94496.97;4983642;28;20069;-52
2023/02/25 06:06:34;;;;;;;14.48;6.78;;;8.40;66.20;;;3.52;100.00;94500.16;4975287;28;20303;-48
2023/02/25 06:09:00;;;;;;;17.17;7.35;;;8.40;66.30;;;3.48;100.00;94497.22;5007313;28;20026;-48
2023/02/25 06:11:29;;;;;;;16.13;7.90;;;8.40;66.20;;;3.49;100.00;94498.81;5006362;28;20515;-51
2023/02/25 06:13:58;;;;;;;14.20;7.78;;;8.40;66.20;;;3.47;100.00;94488.50;4991942;28;20112;-54
2023/02/25 06:16:31;;;;;;;18.88;8.30;;;8.40;66.20;;;3.47;100.00;94498.25;4990541;28;20021;-52
2023/02/25 06:19:01;;;;;;;18.83;8.65;;;8.40;66.10;;;3.47;100.00;94491.13;4977146;28;20457;-47
2023/02/25 06:21:27;;;;;;;17.48;8.88;;;8.40;66.10;;;3.45;100.00;94503.78;5000392;28;20115;-50
2023/02/25 06:24:01;;;;;;;18.02;8.75;;;8.40;66.10;;;3.46;100.00;94501.94;5019613;28;20422;-52
2023/02/25 06:26:30;;;;;;;17.98;8.25;;;8.40;66.10;;;3.44;100.00;94504.78;4991925;28;20025;-52
2023/02/25 06:28:59;;;;;;;19.33;8.68;;;8.40;66.20;;;3.47;100.00;94511.41;4991847;28;20511;-52
2023/02/25 06:31:28;;;;;;;18.20;8.05;;;8.40;66.30;;;3.47;100.00;94516.69;4994167;28;20116;-49
2023/02/25 06:33:54;;;;;;;17.45;8.57;;;8.40;66.20;;;3.48;100.00;94515.66;4993940;28;22856;-49
2023/02/25 06:36:20;;;;;;;16.77;8.13;;;8.40;66.90;;;3.47;100.00;94516.69;4989955;28;20060;-48
2023/02/25 06:38:48;;;;;;;17.52;7.93;;;8.40;66.20;;;3.45;100.00;94522.19;4990469;28;20034;-49
2023/02/25 06:41:21;;;;;;;19.02;8.95;;;8.40;66.10;;;3.46;100.00;94521.16;5000181;28;21249;-47
2023/02/25 06:43:50;;;;;;;17.60;7.78;;;8.40;66.20;;;3.46;100.00;94515.09;4981596;28;20550;-49
2023/02/25 06:46:23;;;;;;;21.17;9.07;;;8.40;66.10;;;3.47;100.00;94516.69;4999821;28;20026;-50
2023/02/25 06:48:52;;;;;;;17.52;7.78;;;8.40;66.20;;;3.43;100.00;94519.00;5017669;28;20116;-51
2023/02/25 06:51:18;;;;;;;16.63;8.73;;;8.40;66.10;;;3.49;100.00;94527.75;5005559;28;20120;-49
2023/02/25 06:53:47;;;;;;;20.65;8.55;;;8.40;66.10;;;3.50;100.00;94539.09;4986439;28;20471;-49
2023/02/25 06:56:19;;;;;;;17.00;8.05;;;8.50;66.20;;;3.51;100.00;94540.66;5003540;28;20034;-49
2023/02/25 06:58:44;;;;;;;20.13;7.77;;;8.50;66.20;;;3.53;100.00;94536.75;5005578;28;20083;-47
2023/02/25 07:01:17;;;;;;;20.38;8.40;;;8.50;66.20;;;3.53;100.00;94541.22;4990881;28;20288;-49
2023/02/25 07:03:43;;;;;;;18.73;8.73;;;8.50;66.30;;;3.49;100.00;94543.56;4973152;28;20045;-52
2023/02/25 07:06:10;;;;;;;15.45;7.88;;;8.50;66.20;;;3.51;100.00;94541.50;4992143;28;20026;-49
2023/02/25 07:08:36;;;;;;;15.35;8.60;;;8.50;66.20;;;3.57;100.00;94531.78;4994304;28;20117;-49
2023/02/25 07:11:32;;;;;;;18.23;9.10;;;8.50;66.30;;;3.59;100.00;94534.97;4999496;28;20103;-51
2023/02/25 07:13:58;;;;;;;18.77;9.65;;;8.60;66.30;;;3.60;100.00;94537.34;4992520;28;20041;-50
2023/02/25 07:16:25;;;;;;;22.00;9.63;;;8.60;66.30;;;3.60;100.00;94532.09;4991151;28;20025;-48
2023/02/25 07:18:52;;;;;;;16.98;9.50;;;8.60;66.30;;;3.64;100.00;94529.78;4991762;28;20046;-51
2023/02/25 07:21:18;;;;;;;18.52;9.52;;;8.60;66.30;;;3.66;100.00;94525.84;5000330;28;20037;-50
2023/02/25 07:23:49;;;;;;;20.85;9.70;;;8.70;66.20;;;3.68;100.00;94531.66;4971801;28;20112;-48
2023/02/25 07:26:17;;;;;;;19.58;8.60;;;8.70;66.20;;;3.71;100.00;94531.19;4991777;28;20547;-49
2023/02/25 07:28:43;;;;;;;18.13;8.00;;;8.70;66.20;;;3.73;100.00;94528.31;4980535;28;20034;-52
2023/02/25 07:31:18;;;;;;;17.23;7.53;;;8.80;66.20;;;3.68;100.00;94529.03;4971981;28;20028;-48
2023/02/25 07:33:45;;;;;;;19.75;7.85;;;8.80;66.20;;;3.70;100.00;94534.06;5001350;28;20049;-48
2023/02/25 07:36:12;;;;;;;14.68;7.28;;;8.80;66.10;;;3.71;100.00;94541.72;4988901;28;20017;-48
2023/02/25 07:38:39;;;;;;;13.52;6.85;;;8.80;66.00;;;3.69;100.00;94545.63;4994538;28;20472;-51
2023/02/25 07:41:13;;;;;;;16.77;7.28;;;8.80;65.90;;;3.72;100.00;94553.03;4967199;28;20033;-52
2023/02/25 07:43:40;;;;;;;15.63;6.85;;;8.90;66.00;;;3.75;100.00;94557.03;4994585;28;20029;-47
2023/02/25 07:46:09;;;;;;;13.52;6.82;;;8.90;65.90;;;3.74;100.00;94552.81;4997841;28;20473;-49
2023/02/25 07:48:38;;;;;;;13.00;6.57;;;8.90;65.80;;;3.78;100.00;94549.41;5010455;28;20056;-47
2023/02/25 07:51:17;;;;;;;17.85;6.63;;;8.90;65.90;;;3.83;100.00;94546.06;5004265;28;20022;-48
2023/02/25 07:53:47;;;;;;;17.17;6.95;;;8.90;65.90;;;3.84;100.00;94548.44;4988869;28;20042;-48
2023/02/25 07:56:19;;;;;;;14.30;6.78;;;8.90;65.80;;;3.84;100.00;94545.81;4988003;28;20036;-48
2023/02/25 07:58:54;;;;;;;14.00;6.90;;;8.90;65.80;;;3.83;100.00;94541.59;4980809;28;20067;-47
2023/02/25 08:01:25;;;;;;;12.55;6.40;;;8.90;65.70;;;3.86;100.00;94543.72;4997234;28;20037;-50
2023/02/25 08:03:56;;;;;;;18.05;7.65;;;9.00;65.80;;;3.89;100.00;94545.06;4983038;28;20072;-49
2023/02/25 08:06:24;;;;;;;16.83;7.18;;;9.00;65.60;;;3.86;100.00;94546.34;4984192;28;20032;-49
2023/02/25 08:08:50;;;;;;;12.93;6.60;;;9.00;65.50;;;3.90;100.00;94536.91;4982452;28;20132;-51
2023/02/25 08:11:21;;;;;;;15.18;6.55;;;9.00;65.40;;;3.96;100.00;94531.69;4991312;28;20018;-50
2023/02/25 08:13:49;;;;;;;14.15;7.15;;;9.10;65.50;;;3.99;100.00;94533.84;4973022;28;20053;-49
2023/02/25 08:16:19;;;;;;;15.90;7.13;;;9.10;65.40;;;3.98;100.00;94534.88;4962636;28;20025;-51
2023/02/25 08:18:46;;;;;;;15.10;7.68;;;9.10;65.40;;;3.96;100.00;94539.59;4984226;28;20524;-47
2023/02/25 08:21:17;;;;;;;13.75;6.40;;;9.20;65.30;;;3.91;100.00;94535.84;4987077;28;20021;-52
2023/02/25 08:23:43;;;;;;;10.50;6.00;;;9.20;65.30;;;3.83;96.33;94533.69;4965330;28;20026;-55
2023/02/25 08:26:09;;;;;;;11.32;6.45;;;9.20;65.10;;;3.79;97.02;94529.13;4988284;28;20029;-53
2023/02/25 08:28:38;;;;;;;10.77;5.88;;;9.10;64.80;;;3.85;95.54;94528.94;4977973;28;20045;-54
2023/02/25 08:31:10;;;;;;;12.25;5.80;;;9.10;64.70;;;3.91;95.39;94535.84;4989254;28;20045;-51
2023/02/25 08:33:48;;;;;;;12.33;6.40;;;9.20;64.60;;;3.98;94.41;94543.59;4989347;28;20111;-55
2023/02/25 08:36:26;;;;;;;9.93;5.40;;;9.20;64.50;;;3.99;92.70;94542.53;4989778;28;20020;-54
2023/02/25 08:38:56;;;;;;;10.52;5.75;;;9.30;64.40;;;4.02;91.22;94543.88;4988898;28;20034;-52
2023/02/25 08:41:27;;;;;;;10.50;5.32;;;9.30;64.90;;;4.07;90.33;94543.91;4987171;28;20022;-54
2023/02/25 08:44:00;;;;;;;11.32;5.63;;;9.40;63.80;;;4.14;89.68;94539.25;4988552;28;20029;-53
2023/02/25 08:46:31;;;;;;;;;;;9.40;63.50;;;4.10;87.07;94541.56;5016037;28;20029;-54
2023/02/25 08:49:01;;;;;;;12.35;5.40;;;9.50;63.60;;;4.14;88.22;94528.72;5009384;28;19936;-55
2023/02/25 08:51:37;;;;;;;9.95;5.47;;;9.50;63.20;;;4.15;88.49;94532.94;5007072;28;20036;-52
2023/02/25 08:54:12;;;;;;;8.10;5.00;;;9.50;63.10;;;4.22;87.90;94524.81;4984003;28;20038;-54
2023/02/25 08:56:43;;;;;;;10.77;5.40;;;9.60;62.90;;;4.25;86.58;94516.41;4988476;28;20099;-55
2023/02/25 08:59:15;;;;;;;8.65;4.65;;;9.70;62.70;;;4.35;87.53;94516.50;4984259;28;20396;-52
2023/02/25 09:01:44;;;;;;;8.77;5.10;;;9.80;62.40;;;4.41;87.08;94516.28;4995192;28;20468;-56
2023/02/25 09:04:23;;;;;;;11.05;5.35;;;9.80;62.20;;;4.48;87.46;94520.53;4989556;28;20036;-53
2023/02/25 09:06:52;;;;;;;7.80;4.93;;;9.90;62.10;;;4.56;87.13;94515.63;5020684;28;20120;-54
2023/02/25 09:09:25;;;;;;;9.95;5.53;;;10.00;62.00;;;4.59;85.10;94514.31;5025562;28;20403;-55
2023/02/25 09:11:52;;;;;;;7.93;5.10;;;10.10;61.70;;;4.62;84.80;94513.81;4994376;28;20033;-55
2023/02/25 09:14:19;;;;;;;8.50;4.80;;;10.20;61.60;;;4.51;82.50;94515.59;5005065;23;20021;-52
2023/02/25 09:16:52;;;;;;;11.10;5.13;;;10.20;61.30;;;4.54;83.37;94517.69;4956772;28;20288;-50
2023/02/25 09:19:18;;;;;;;8.57;5.07;;;10.20;60.90;;;4.54;82.53;94514.28;4989551;28;20054;-50
2023/02/25 09:21:54;;;;;;;7.35;4.00;;;10.20;60.90;;;4.61;82.71;94520.16;4969489;28;20292;-51
2023/02/25 09:24:20;;;;;;;9.57;5.13;;;10.20;60.70;;;4.63;82.16;94521.47;4973535;28;20026;-49
2023/02/25 09:26:47;;;;;;;8.70;5.20;;;10.20;60.50;;;4.65;81.72;94521.22;4955130;28;20440;-49
2023/02/25 09:29:13;;;;;;;7.40;4.80;;;10.20;60.30;;;4.70;82.92;94525.72;4954137;28;20045;-52
2023/02/25 09:31:48;;;;;;;9.35;5.20;;;10.20;60.20;;;4.63;82.26;94524.09;4939975;28;20027;-51
2023/02/25 09:34:14;;;;;;;11.95;5.32;;;10.20;60.10;;;4.68;82.23;94527.84;4953743;28;20520;-51
2023/02/25 09:36:43;;;;;;;9.45;4.93;;;10.10;60.10;;;4.67;81.45;94515.69;4955490;28;20027;-50
2023/02/25 09:39:09;;;;;;;7.25;5.05;;;10.10;59.80;;;4.63;81.95;94513.53;4955084;28;20027;-52
2023/02/25 09:41:53;;;;;;;9.10;5.32;;;10.10;59.80;;;4.50;81.99;94518.47;4960666;28;20021;-48
2023/02/25 09:44:25;;;;;;;10.10;5.20;;;10.00;59.60;;;4.48;81.85;94520.53;4975459;28;20033;-49
2023/02/25 09:47:36;;;;;;;10.38;5.82;;;10.00;59.70;;;4.50;81.43;94521.09;4962807;28;20041;-49
2023/02/25 09:50:34;;;;;;;10.00;4.82;;;10.00;59.70;;;4.56;83.07;94514.81;4960328;28;20492;-50
2023/02/25 09:53:40;;;;;;;8.82;5.55;;;9.90;59.70;;;4.60;83.54;94513.25;4948169;28;20093;-52
2023/02/25 09:56:13;;;;;;;10.48;5.30;;;9.90;59.70;;;4.56;82.46;94509.53;4960788;28;20444;-49
2023/02/25 09:58:52;;;;;;;9.70;5.38;;;10.00;59.70;;;4.64;83.23;94514.38;4941173;28;20202;-49
2023/02/25 10:01:56;;;;;;;10.77;5.65;;;10.00;59.60;;;4.59;84.36;94509.84;4978240;28;20129;-53
2023/02/25 10:05:53;;;;;;;9.70;5.78;;;10.00;59.60;;;4.58;82.99;94512.75;4956688;28;20014;-53
2023/02/25 10:08:39;;;;;;;9.38;5.22;;;9.90;59.40;;;4.61;83.21;94512.22;4903634;29;20034;-52
2023/02/25 10:11:37;;;;;;;10.07;5.18;;;9.90;59.50;;;4.62;82.91;94509.31;4894206;29;20032;-48
2023/02/25 10:14:35;;;;;;;10.50;5.13;;;10.00;59.50;;;4.68;81.30;94515.44;4938983;28;20062;-48
2023/02/25 10:17:17;;;;;;;7.45;4.40;;;10.00;59.40;;;4.69;80.00;94514.38;4927645;28;20043;-49
2023/02/25 10:20:37;;;;;;;9.40;4.80;;;10.00;59.20;;;4.64;78.92;94517.78;4952824;28;20113;-48
2023/02/25 10:23:57;;;;;;;14.60;5.47;;;10.00;59.10;;;4.62;79.37;94525.16;4950184;28;20109;-54
2023/02/25 10:26:44;;;;;;;6.25;4.55;;;10.00;59.00;;;4.60;79.58;94523.81;4966851;28;20034;-52
2023/02/25 10:29:45;;;;;;;9.27;4.40;;;10.00;59.40;;;4.61;79.02;94526.22;4951460;28;20022;-52
2023/02/25 10:32:32;;;;;;;7.95;4.35;;;10.00;58.70;;;4.52;76.48;94517.19;4956052;28;20105;-51
2023/02/25 10:35:23;;;;;;;7.03;4.30;;;10.00;58.60;;;4.48;77.87;94515.28;4947131;28;20023;-50
2023/02/25 10:37:49;;;;;;;8.50;4.15;;;10.00;58.50;;;4.50;77.43;94508.72;4980346;28;20084;-51
2023/02/25 10:40:23;;;;;;;8.07;4.20;;;9.90;58.50;;;4.51;76.32;94512.97;4965993;28;20018;-52
2023/02/25 10:43:01;;;;;;;10.63;4.53;;;9.90;58.30;;;4.37;76.45;94511.78;4951615;28;20049;-54
2023/02/25 10:45:35;;;;;;;8.10;4.68;;;9.90;58.30;;;4.44;77.81;94519.47;4967105;28;20050;-53
2023/02/25 10:48:22;;;;;;;10.60;4.82;;;9.90;58.20;;;4.37;77.37;94515.19;4966429;28;20125;-56
2023/02/25 10:51:14;;;;;;;8.90;4.20;;;9.90;58.10;;;4.41;77.39;94513.63;4966809;28;20034;-48
2023/02/25 10:53:52;;;;;;;6.83;4.30;;;9.80;58.00;;;4.44;77.64;94511.56;4946637;28;20023;-51
2023/02/25 10:56:44;;;;;;;8.63;4.28;;;9.80;58.10;;;4.42;77.66;94503.91;4951725;28;20113;-47
2023/02/25 10:59:42;;;;;;;9.32;4.43;;;9.80;58.00;;;4.50;78.75;94507.91;4933852;28;20501;-51